createdAt,value
2022-08-30T00:00:44.268Z,20.9
2022-08-30T00:05:46.548Z,20.9
2022-08-30T00:10:48.870Z,20.9
2022-08-30T00:15:51.446Z,20.9
2022-08-30T00:20:54.575Z,21
2022-08-30T00:25:57.949Z,20.9
2022-08-30T00:31:00.785Z,20.8
2022-08-30T00:36:03.662Z,20.8
2022-08-30T00:41:06.364Z,20.8
2022-08-30T00:46:09.097Z,20.8
2022-08-30T00:51:11.998Z,20.7
2022-08-30T00:56:14.728Z,20.7
2022-08-30T01:01:17.501Z,20.7
2022-08-30T01:06:21.690Z,20.6
2022-08-30T01:11:23.946Z,20.6
2022-08-30T01:16:29.494Z,20.5
2022-08-30T01:21:33.403Z,20.4
2022-08-30T01:26:35.707Z,20.4
2022-08-30T01:31:38.348Z,20.3
2022-08-30T01:36:47.067Z,20.4
2022-08-30T01:41:50.018Z,20.3
2022-08-30T01:46:52.569Z,20.3
2022-08-30T01:52:03.114Z,20.2
2022-08-30T01:56:56.615Z,20.2
2022-08-30T02:01:59.418Z,20.2
2022-08-30T02:07:02.358Z,20.2
2022-08-30T02:12:05.073Z,20.2
2022-08-30T02:17:07.927Z,20.2
2022-08-30T02:22:10.635Z,20.2
2022-08-30T02:27:12.929Z,20.2
2022-08-30T02:32:15.262Z,20.2
2022-08-30T02:37:17.901Z,20.2
2022-08-30T02:42:20.499Z,20.2
2022-08-30T02:47:22.751Z,20.2
2022-08-30T02:52:29.916Z,20.2
2022-08-30T02:57:32.218Z,20.2
2022-08-30T03:02:35.212Z,20.1
2022-08-30T03:07:38.144Z,20.1
2022-08-30T03:12:40.411Z,20.1
2022-08-30T03:17:43.036Z,20.2
2022-08-30T03:22:45.699Z,20.2
2022-08-30T03:27:48.359Z,20.2
2022-08-30T03:32:53.526Z,20.1
2022-08-30T03:37:58.339Z,20.2
2022-08-30T03:43:01.839Z,20.2
2022-08-30T03:48:04.274Z,20.2
2022-08-30T03:53:07.017Z,20.1
2022-08-30T03:58:09.663Z,20
2022-08-30T04:03:12.229Z,19.9
2022-08-30T04:08:15.146Z,19.8
2022-08-30T04:13:18.184Z,19.8
2022-08-30T04:18:20.475Z,19.8
2022-08-30T04:23:23.201Z,19.7
2022-08-30T04:28:25.471Z,19.7
2022-08-30T04:33:28.322Z,19.8
2022-08-30T04:38:32.616Z,19.8
2022-08-30T04:48:35.913Z,20
2022-08-30T04:53:38.354Z,20
2022-08-30T04:58:41.109Z,20.1
2022-08-30T05:03:44.270Z,20.2
2022-08-30T05:08:48.352Z,20.2
2022-08-30T05:13:50.564Z,20.2
2022-08-30T05:18:53.085Z,20.4
2022-08-30T05:24:00.367Z,20.4
2022-08-30T05:29:02.983Z,20.6
2022-08-30T05:34:05.329Z,20.8
2022-08-30T05:39:10.137Z,21.1
2022-08-30T05:44:16.187Z,21.2
2022-08-30T05:49:18.589Z,21.2
2022-08-30T05:54:21.288Z,21.6
2022-08-30T05:59:23.892Z,22
2022-08-30T06:04:26.869Z,22.7
2022-08-30T06:09:29.532Z,23.5
2022-08-30T06:14:32.062Z,24.5
2022-08-30T06:19:34.793Z,25.8
2022-08-30T06:24:59.393Z,26.5
2022-08-30T06:29:42.180Z,27
2022-08-30T06:34:44.514Z,27
2022-08-30T06:39:47.469Z,27.1
2022-08-30T06:44:52.461Z,27.2
2022-08-30T06:49:56.208Z,26.4
2022-08-30T06:54:59.228Z,26.4
2022-08-30T07:00:01.817Z,26.9
2022-08-30T07:05:04.165Z,26.9
2022-08-30T07:10:07.085Z,26.7
2022-08-30T07:15:09.994Z,26.9
2022-08-30T07:20:12.311Z,26.9
2022-08-30T07:25:15.028Z,26.8
2022-08-30T07:30:17.310Z,26.8
2022-08-30T07:35:20.065Z,26.5
2022-08-30T07:40:23.172Z,26.4
2022-08-30T07:45:26.261Z,26.1
2022-08-30T07:50:28.585Z,26.1
2022-08-30T07:55:31.288Z,26.6
2022-08-30T08:00:33.994Z,27.4
2022-08-30T08:05:36.310Z,27.4
2022-08-30T08:10:39.159Z,29.4
2022-08-30T08:15:42.499Z,29.2
2022-08-30T08:20:44.902Z,29.1
2022-08-30T08:25:47.541Z,29
2022-08-30T08:30:50.512Z,29.7
2022-08-30T08:35:52.906Z,29.7
2022-08-30T08:40:55.617Z,30.7
2022-08-30T08:45:58.691Z,30.2
2022-08-30T08:51:04.705Z,29.8
2022-08-30T08:56:13.037Z,29.9
2022-08-30T09:01:15.964Z,28.9
2022-08-30T09:06:18.837Z,28.4
2022-08-30T09:11:28.434Z,28.8
2022-08-30T09:16:31.295Z,30.2
2022-08-30T09:21:34.294Z,31.3
2022-08-30T09:26:37.169Z,32.4
2022-08-30T09:31:39.758Z,34.3
2022-08-30T09:36:42.369Z,36.5
2022-08-30T09:41:46.733Z,37.7
2022-08-30T09:46:50.135Z,39.3
2022-08-30T09:51:53.451Z,39.4
2022-08-30T09:56:57.291Z,39.4
2022-08-30T10:02:01.371Z,38.9
2022-08-30T10:07:04.379Z,39.6
2022-08-30T10:12:07.958Z,40.4
2022-08-30T10:17:15.665Z,40.9
2022-08-30T10:22:20.791Z,42.2
2022-08-30T10:27:26.124Z,41.1
2022-08-30T10:32:28.665Z,40.9
2022-08-30T10:37:31.172Z,42.4
2022-08-30T10:42:41.410Z,42.8
2022-08-30T10:47:34.784Z,42.9
2022-08-30T10:52:37.418Z,42.3
2022-08-30T10:57:44.869Z,38.9
2022-08-30T11:02:47.172Z,38.8
2022-08-30T11:07:53.348Z,40.5
2022-08-30T11:12:57.117Z,39.7
2022-08-30T11:17:59.809Z,40.4
2022-08-30T11:23:02.401Z,39.5
2022-08-30T11:28:39.074Z,39
2022-08-30T11:33:34.804Z,39.4
2022-08-30T11:38:24.580Z,35.9
2022-08-30T11:43:34.456Z,36.5
2022-08-30T11:48:53.440Z,38
2022-08-30T11:53:51.762Z,38
2022-08-30T11:58:54.678Z,37.9
2022-08-30T12:03:58.039Z,36.5
2022-08-30T12:09:09.426Z,35.8
2022-08-30T12:14:03.011Z,36.5
2022-08-30T12:19:09.279Z,36.7
2022-08-30T12:24:16.075Z,36.6
2022-08-30T12:29:19.453Z,35.3
2022-08-30T12:34:22.229Z,35.3
2022-08-30T12:39:28.422Z,35.3
2022-08-30T12:44:31.206Z,34.3
2022-08-30T12:49:34.181Z,33.7
2022-08-30T12:54:40.197Z,33.9
2022-08-30T13:00:01.891Z,33.9
2022-08-30T13:04:45.077Z,33.7
2022-08-30T13:09:49.493Z,32.8
2022-08-30T13:14:55.019Z,32.8
2022-08-30T13:19:58.674Z,32.5
2022-08-30T13:25:01.562Z,32.3
2022-08-30T13:30:14.749Z,32.1
2022-08-30T13:35:08.194Z,31.5
2022-08-30T13:40:12.600Z,31.2
2022-08-30T13:45:45.545Z,31.1
2022-08-30T13:50:23.545Z,31.1
2022-08-30T13:55:18.693Z,31
2022-08-30T14:00:22.596Z,30.8
2022-08-30T14:06:22.214Z,30.8
2022-08-30T14:10:48.862Z,30.5
2022-08-30T14:15:42.259Z,30.4
2022-08-30T14:20:46.145Z,30.3
2022-08-30T14:25:51.917Z,30.1
2022-08-30T14:30:54.943Z,30
2022-08-30T14:36:00.041Z,30
2022-08-30T14:41:02.967Z,29.7
2022-08-30T14:46:05.887Z,29.5
2022-08-30T14:51:08.734Z,29.5
2022-08-30T14:56:13.701Z,29.5
2022-08-30T15:01:16.880Z,29.6
2022-08-30T15:06:21.073Z,29.6
2022-08-30T15:11:30.756Z,29.5
2022-08-30T15:16:35.900Z,29.5
2022-08-30T15:21:38.873Z,29.5
2022-08-30T15:26:41.995Z,29.4
2022-08-30T15:31:45.156Z,29.2
2022-08-30T15:36:52.981Z,29.2
2022-08-30T15:42:02.394Z,28.9
2022-08-30T15:47:05.628Z,28.9
2022-08-30T15:52:10.643Z,28.6
2022-08-30T15:57:13.099Z,28.6
2022-08-30T16:02:17.865Z,28.4
2022-08-30T16:07:21.199Z,28.5
2022-08-30T16:12:25.881Z,28.3
2022-08-30T16:17:28.757Z,28.3
2022-08-30T16:22:33.801Z,28
2022-08-30T16:27:36.972Z,27.9
2022-08-30T16:32:43.367Z,27.9
2022-08-30T16:37:45.803Z,27.9
2022-08-30T16:42:49.615Z,27.6
2022-08-30T16:47:54.267Z,27.4
2022-08-30T16:52:56.881Z,27.3
2022-08-30T16:58:01.253Z,27.2
2022-08-30T17:03:04.829Z,27.1
2022-08-30T17:08:10.989Z,27.1
2022-08-30T17:13:16.328Z,26.9
2022-08-30T17:18:20.559Z,26.7
2022-08-30T17:23:24.843Z,26.5
2022-08-30T17:28:27.975Z,26.3
2022-08-30T17:33:30.540Z,26.2
2022-08-30T17:38:33.013Z,26.1
2022-08-30T17:43:38.757Z,26
2022-08-30T17:48:41.556Z,25.9
2022-08-30T17:53:44.315Z,25.7
2022-08-30T17:58:47.485Z,25.7
2022-08-30T18:03:57.222Z,25.4
2022-08-30T18:13:59.080Z,25.1
2022-08-30T18:19:01.881Z,24.9
2022-08-30T18:24:04.297Z,24.9
2022-08-30T18:29:07.230Z,24.6
2022-08-30T18:34:14.368Z,24.5
2022-08-30T18:39:17.031Z,24.5
2022-08-30T18:44:34.495Z,24.5
2022-08-30T18:49:27.076Z,24.3
2022-08-30T18:54:30.441Z,23.8
2022-08-30T18:59:39.184Z,23.4
2022-08-30T19:04:38.030Z,23.1
2022-08-30T19:09:40.724Z,22.8
2022-08-30T19:14:44.959Z,22.8
2022-08-30T19:19:53.702Z,22.8
2022-08-30T19:24:57.503Z,22.8
2022-08-30T19:30:03.190Z,22.8
2022-08-30T19:35:06.470Z,22.8
2022-08-30T19:40:10.268Z,22.7
2022-08-30T19:45:14.715Z,22.6
2022-08-30T19:50:17.970Z,22.6
2022-08-30T19:55:30.190Z,22.5
2022-08-30T20:00:24.625Z,22.3
2022-08-30T20:05:27.716Z,22.2
2022-08-30T20:10:30.743Z,22.2
2022-08-30T20:15:34.326Z,22.1
2022-08-30T20:20:38.846Z,22.2
2022-08-30T20:25:41.398Z,22.2
2022-08-30T20:30:44.315Z,22.3
2022-08-30T20:35:51.343Z,22.4
2022-08-30T20:40:54.166Z,22.4
2022-08-30T20:45:56.970Z,22.4
2022-08-30T20:51:00.893Z,22.3
2022-08-30T20:56:03.565Z,22.2
2022-08-30T21:01:06.356Z,22
2022-08-30T21:06:08.906Z,22
2022-08-30T21:11:11.178Z,22
2022-08-30T21:16:14.637Z,21.9
2022-08-30T21:21:17.323Z,21.6
2022-08-30T21:26:20.068Z,21.6
2022-08-30T21:31:22.956Z,21.7
2022-08-30T21:36:25.682Z,21.8
2022-08-30T21:41:29.092Z,21.8
2022-08-30T21:46:31.780Z,21.8
2022-08-30T21:51:34.320Z,21.8
2022-08-30T21:56:36.634Z,21.7
2022-08-30T22:01:39.813Z,21.7
2022-08-30T22:06:42.251Z,21.7
2022-08-30T22:11:45.656Z,21.7
2022-08-30T22:16:49.350Z,21.6
2022-08-30T22:21:53.835Z,21.5
2022-08-30T22:26:53.854Z,21.4
2022-08-30T22:36:57.346Z,21.3
2022-08-30T22:41:59.668Z,21.2
2022-08-30T22:47:02.061Z,21.3
2022-08-30T22:52:04.368Z,21.3
2022-08-30T22:57:07.080Z,21.3
2022-08-30T23:02:10.095Z,21.3
2022-08-30T23:07:12.412Z,21.3
2022-08-30T23:12:14.812Z,21.2
2022-08-30T23:17:17.110Z,21.3
2022-08-30T23:22:19.796Z,21.2
2022-08-30T23:27:22.617Z,21.2
2022-08-30T23:32:25.232Z,21.1
2022-08-30T23:37:27.584Z,21.1
2022-08-30T23:42:29.914Z,21.1
2022-08-30T23:47:33.816Z,20.9
2022-08-30T23:52:36.089Z,20.9
2022-08-30T23:57:38.436Z,20.9
